createdAt,value
2017-05-12T00:00:24.230Z,11.1
2017-05-12T00:01:26.176Z,11.1
2017-05-12T00:02:27.793Z,11.1
2017-05-12T00:03:29.444Z,11.1
2017-05-12T00:04:31.087Z,11.1
2017-05-12T00:05:32.701Z,11.1
2017-05-12T00:06:34.315Z,11.1
2017-05-12T00:07:36.617Z,11.1
2017-05-12T00:08:38.231Z,11.1
2017-05-12T00:09:39.839Z,11.1
2017-05-12T00:10:41.787Z,11.1
2017-05-12T00:11:43.403Z,11.1
2017-05-12T00:12:45.016Z,11.1
2017-05-12T00:13:46.629Z,11.2
2017-05-12T00:14:48.239Z,11.2
2017-05-12T00:15:49.850Z,11.2
2017-05-12T00:16:51.464Z,11.2
2017-05-12T00:17:53.074Z,11.1
2017-05-12T00:18:54.682Z,11.1
2017-05-12T00:19:56.291Z,11.1
2017-05-12T00:20:58.239Z,11.1
2017-05-12T00:21:59.857Z,11.1
2017-05-12T00:23:01.469Z,11.1
2017-05-12T00:24:03.074Z,11.1
2017-05-12T00:25:04.692Z,11.1
2017-05-12T00:26:06.300Z,11.1
2017-05-12T00:27:07.912Z,11.1
2017-05-12T00:28:09.518Z,11.1
2017-05-12T00:29:11.142Z,11.1
2017-05-12T00:30:12.760Z,11.1
2017-05-12T00:31:14.366Z,11.1
2017-05-12T00:32:15.979Z,11.1
2017-05-12T00:33:17.590Z,11
2017-05-12T00:34:19.198Z,11
2017-05-12T00:35:20.810Z,11
2017-05-12T00:36:22.425Z,10.9
2017-05-12T00:37:24.074Z,11
2017-05-12T00:38:25.782Z,11
2017-05-12T00:39:27.394Z,11.1
2017-05-12T00:40:29.340Z,11
2017-05-12T00:41:30.951Z,10.9
2017-05-12T00:42:32.893Z,11
2017-05-12T00:43:34.508Z,11
2017-05-12T00:44:36.136Z,11
2017-05-12T00:45:38.091Z,11
2017-05-12T00:46:40.040Z,10.9
2017-05-12T00:47:41.651Z,10.9
2017-05-12T00:48:43.258Z,11
2017-05-12T00:49:44.865Z,11
2017-05-12T00:50:46.479Z,11.1
2017-05-12T00:51:48.086Z,11
2017-05-12T00:52:49.698Z,11
2017-05-12T00:53:51.309Z,11
2017-05-12T00:54:52.925Z,11
2017-05-12T00:55:54.578Z,11
2017-05-12T00:56:56.185Z,11
2017-05-12T00:57:57.803Z,11
2017-05-12T00:58:59.765Z,11
2017-05-12T01:00:01.374Z,11.1
2017-05-12T01:01:02.989Z,11
2017-05-12T01:02:04.608Z,11.1
2017-05-12T01:03:06.259Z,11.1
2017-05-12T01:04:07.868Z,11.1
2017-05-12T01:05:09.485Z,11.1
2017-05-12T01:06:11.100Z,11.1
2017-05-12T01:07:12.710Z,11.1
2017-05-12T01:08:14.657Z,11.1
2017-05-12T01:09:16.269Z,11
2017-05-12T01:10:18.232Z,11.1
2017-05-12T01:11:19.845Z,11.1
2017-05-12T01:12:21.463Z,11
2017-05-12T01:13:23.072Z,11
2017-05-12T01:14:24.685Z,11
2017-05-12T01:15:26.290Z,10.9
2017-05-12T01:16:27.910Z,11
2017-05-12T01:17:29.516Z,11
2017-05-12T01:18:31.132Z,11
2017-05-12T01:19:33.095Z,11.1
2017-05-12T01:20:34.710Z,11
2017-05-12T01:21:36.322Z,11
2017-05-12T01:22:37.937Z,11
2017-05-12T01:23:39.549Z,11.1
2017-05-12T01:24:41.159Z,11.1
2017-05-12T01:25:43.124Z,11.2
2017-05-12T01:26:44.734Z,11.2
2017-05-12T01:27:46.683Z,11.3
2017-05-12T01:28:48.300Z,11.3
2017-05-12T01:29:49.921Z,11.3
2017-05-12T01:30:51.544Z,11.4
2017-05-12T01:31:53.157Z,11.3
2017-05-12T01:32:55.166Z,11.3
2017-05-12T01:33:56.779Z,11.3
2017-05-12T01:34:58.736Z,11.3
2017-05-12T01:36:00.351Z,11.3
2017-05-12T01:37:02.300Z,11.3
2017-05-12T01:38:03.915Z,11.2
2017-05-12T01:39:05.529Z,11.2
2017-05-12T01:40:07.147Z,11.1
2017-05-12T01:41:08.764Z,11.1
2017-05-12T01:42:10.381Z,11.2
2017-05-12T01:43:11.998Z,11.1
2017-05-12T01:44:13.953Z,11.1
2017-05-12T01:45:15.569Z,11.1
2017-05-12T01:46:17.182Z,11.1
2017-05-12T01:47:19.135Z,11.1
2017-05-12T01:48:20.748Z,11.1
2017-05-12T01:49:22.702Z,11.1
2017-05-12T01:50:24.316Z,11.1
2017-05-12T01:51:25.935Z,11.1
2017-05-12T01:52:27.549Z,11.1
2017-05-12T01:53:29.160Z,11.1
2017-05-12T01:54:30.776Z,11.1
2017-05-12T01:55:32.390Z,11.1
2017-05-12T01:56:34.008Z,11.1
2017-05-12T01:57:35.617Z,11.1
2017-05-12T01:58:37.229Z,11.1
2017-05-12T01:59:38.847Z,11.1
2017-05-12T02:00:40.466Z,11.1
2017-05-12T02:01:42.080Z,11.1
2017-05-12T02:02:44.030Z,11.1
2017-05-12T02:03:45.652Z,11
2017-05-12T02:04:47.257Z,11
2017-05-12T02:05:48.883Z,11
2017-05-12T02:06:50.499Z,11.1
2017-05-12T02:07:52.118Z,11
2017-05-12T02:08:53.733Z,11.1
2017-05-12T02:09:55.347Z,11
2017-05-12T02:10:56.956Z,11
2017-05-12T02:11:58.570Z,11.1
2017-05-12T02:13:00.185Z,11.1
2017-05-12T02:14:01.797Z,11.1
2017-05-12T02:15:03.410Z,11.1
2017-05-12T02:16:05.022Z,11.1
2017-05-12T02:17:06.643Z,11.1
2017-05-12T02:18:08.262Z,11.1
2017-05-12T02:19:09.876Z,11
2017-05-12T02:20:11.489Z,11
2017-05-12T02:21:13.102Z,11
2017-05-12T02:22:14.723Z,11
2017-05-12T02:23:16.337Z,11
2017-05-12T02:24:18.288Z,11
2017-05-12T02:25:19.907Z,11
2017-05-12T02:26:21.521Z,11
2017-05-12T02:27:23.140Z,11
2017-05-12T02:28:24.751Z,10.9
2017-05-12T02:29:26.367Z,10.9
2017-05-12T02:30:27.973Z,10.9
2017-05-12T02:31:29.627Z,10.9
2017-05-12T02:32:31.241Z,10.9
2017-05-12T02:33:32.909Z,10.9
2017-05-12T02:34:34.870Z,10.9
2017-05-12T02:35:36.477Z,10.9
2017-05-12T02:36:38.090Z,10.9
2017-05-12T02:37:40.047Z,10.8
2017-05-12T02:38:41.665Z,10.8
2017-05-12T02:39:43.282Z,10.8
2017-05-12T02:40:44.894Z,10.8
2017-05-12T02:41:46.541Z,10.9
2017-05-12T02:42:48.155Z,10.9
2017-05-12T02:43:49.773Z,10.9
2017-05-12T02:44:51.389Z,10.8
2017-05-12T02:45:52.998Z,10.7
2017-05-12T02:46:54.949Z,10.8
2017-05-12T02:47:56.554Z,10.8
2017-05-12T02:48:58.169Z,10.7
2017-05-12T02:49:59.784Z,10.7
2017-05-12T02:51:01.740Z,10.7
2017-05-12T02:52:03.352Z,10.8
2017-05-12T02:53:04.967Z,10.8
2017-05-12T02:54:06.587Z,10.8
2017-05-12T02:55:08.199Z,10.8
2017-05-12T02:56:09.821Z,10.8
2017-05-12T02:57:11.433Z,10.7
2017-05-12T02:58:13.044Z,10.7
2017-05-12T02:59:14.673Z,10.6
2017-05-12T03:00:16.290Z,10.7
2017-05-12T03:01:17.907Z,10.7
2017-05-12T03:02:19.516Z,10.7
2017-05-12T03:03:21.131Z,10.7
2017-05-12T03:04:22.747Z,10.6
2017-05-12T03:05:24.369Z,10.6
2017-05-12T03:06:25.982Z,10.5
2017-05-12T03:07:27.597Z,10.6
2017-05-12T03:08:29.212Z,10.6
2017-05-12T03:09:30.824Z,10.5
2017-05-12T03:10:32.433Z,10.6
2017-05-12T03:11:34.045Z,10.6
2017-05-12T03:12:35.994Z,10.7
2017-05-12T03:13:37.612Z,10.7
2017-05-12T03:14:39.564Z,10.7
2017-05-12T03:15:41.169Z,10.7
2017-05-12T03:16:42.783Z,10.7
2017-05-12T03:17:44.734Z,10.7
2017-05-12T03:18:46.684Z,10.7
2017-05-12T03:19:48.637Z,10.7
2017-05-12T03:20:50.260Z,10.7
2017-05-12T03:21:51.872Z,10.7
2017-05-12T03:22:53.490Z,10.8
2017-05-12T03:23:55.105Z,10.8
2017-05-12T03:24:56.716Z,10.8
2017-05-12T03:25:58.328Z,10.7
2017-05-12T03:26:59.932Z,10.6
2017-05-12T03:28:01.546Z,10.6
2017-05-12T03:29:03.170Z,10.6
2017-05-12T03:30:04.780Z,10.6
2017-05-12T03:31:06.386Z,10.7
2017-05-12T03:32:08.004Z,10.6
2017-05-12T03:33:09.618Z,10.6
2017-05-12T03:34:11.231Z,10.6
2017-05-12T03:35:12.848Z,10.6
2017-05-12T03:36:14.460Z,10.6
2017-05-12T03:37:16.066Z,10.5
2017-05-12T03:38:17.686Z,10.5
2017-05-12T03:39:19.326Z,10.4
2017-05-12T03:40:20.952Z,10.5
2017-05-12T03:41:22.897Z,10.4
2017-05-12T03:42:24.853Z,10.5
2017-05-12T03:43:26.804Z,10.4
2017-05-12T03:44:28.417Z,10.4
2017-05-12T03:45:30.024Z,10.4
2017-05-12T03:46:31.642Z,10.4
2017-05-12T03:47:33.256Z,10.4
2017-05-12T03:48:34.869Z,10.4
2017-05-12T03:49:36.490Z,10.5
2017-05-12T03:50:38.107Z,10.5
2017-05-12T03:51:39.720Z,10.5
2017-05-12T03:52:41.331Z,10.4
2017-05-12T03:53:43.289Z,10.4
2017-05-12T03:54:45.253Z,10.5
2017-05-12T03:55:46.874Z,10.5
2017-05-12T03:56:48.831Z,10.5
2017-05-12T03:57:50.443Z,10.6
2017-05-12T03:58:52.055Z,10.5
2017-05-12T03:59:54.006Z,10.6
2017-05-12T04:00:55.624Z,10.5
2017-05-12T04:01:57.246Z,10.5
2017-05-12T04:02:58.860Z,10.5
2017-05-12T04:04:00.473Z,10.5
2017-05-12T04:05:02.089Z,10.5
2017-05-12T04:06:03.698Z,10.5
2017-05-12T04:07:05.306Z,10.5
2017-05-12T04:08:07.264Z,10.6
2017-05-12T04:09:08.870Z,10.6
2017-05-12T04:10:10.483Z,10.5
2017-05-12T04:11:12.094Z,10.5
2017-05-12T04:12:13.711Z,10.4
2017-05-12T04:13:15.334Z,10.4
2017-05-12T04:14:17.287Z,10.4
2017-05-12T04:15:18.904Z,10.4
2017-05-12T04:16:20.515Z,10.5
2017-05-12T04:17:22.128Z,10.5
2017-05-12T04:18:23.734Z,10.5
2017-05-12T04:19:25.350Z,10.6
2017-05-12T04:20:26.962Z,10.6
2017-05-12T04:21:28.574Z,10.6
2017-05-12T04:22:30.528Z,10.6
2017-05-12T04:23:32.493Z,10.6
2017-05-12T04:24:34.102Z,10.6
2017-05-12T04:25:35.712Z,10.6
2017-05-12T04:26:37.318Z,10.6
2017-05-12T04:27:38.946Z,10.6
2017-05-12T04:28:40.907Z,10.6
2017-05-12T04:29:42.522Z,10.6
2017-05-12T04:30:44.131Z,10.6
2017-05-12T04:31:45.744Z,10.7
2017-05-12T04:32:47.348Z,10.7
2017-05-12T04:33:48.958Z,10.6
2017-05-12T04:34:50.572Z,10.6
2017-05-12T04:35:52.224Z,10.6
2017-05-12T04:36:53.834Z,10.6
2017-05-12T04:37:55.447Z,10.4
2017-05-12T04:38:57.061Z,10.4
2017-05-12T04:39:58.782Z,10.4
2017-05-12T04:41:00.392Z,10.5
2017-05-12T04:42:02.006Z,10.6
2017-05-12T04:43:03.622Z,10.6
2017-05-12T04:44:05.571Z,10.6
2017-05-12T04:45:07.183Z,10.6
2017-05-12T04:46:08.803Z,10.6
2017-05-12T04:47:10.786Z,10.5
2017-05-12T04:48:12.404Z,10.4
2017-05-12T04:49:14.354Z,10.5
2017-05-12T04:50:16.327Z,10.6
2017-05-12T04:51:17.938Z,10.6
2017-05-12T04:52:19.553Z,10.6
2017-05-12T04:53:21.164Z,10.6
2017-05-12T04:54:23.118Z,10.6
2017-05-12T04:55:24.728Z,10.6
2017-05-12T04:56:26.353Z,10.6
2017-05-12T04:57:27.974Z,10.6
2017-05-12T04:58:29.805Z,10.7
2017-05-12T04:59:31.437Z,10.8
2017-05-12T05:00:33.049Z,10.8
2017-05-12T05:01:34.671Z,10.7
2017-05-12T05:02:36.291Z,10.7
2017-05-12T05:03:37.903Z,10.8
2017-05-12T05:04:39.520Z,10.8
2017-05-12T05:05:41.123Z,10.8
2017-05-12T05:06:42.738Z,10.8
2017-05-12T05:07:44.345Z,10.8
2017-05-12T05:08:45.962Z,10.8
2017-05-12T05:09:47.588Z,10.8
2017-05-12T05:10:49.545Z,10.9
2017-05-12T05:11:51.160Z,10.8
2017-05-12T05:12:52.768Z,10.7
2017-05-12T05:13:54.384Z,10.8
2017-05-12T05:14:55.999Z,10.7
2017-05-12T05:15:57.606Z,10.8
2017-05-12T05:16:59.223Z,10.8
2017-05-12T05:18:00.833Z,10.8
2017-05-12T05:19:02.456Z,10.7
2017-05-12T05:20:04.162Z,10.8
2017-05-12T05:21:05.783Z,10.8
2017-05-12T05:22:07.389Z,10.8
2017-05-12T05:23:09.008Z,10.8
2017-05-12T05:24:10.620Z,10.9
2017-05-12T05:25:12.232Z,10.9
2017-05-12T05:26:13.841Z,10.9
2017-05-12T05:27:15.452Z,10.9
2017-05-12T05:28:17.066Z,11
2017-05-12T05:29:18.699Z,10.9
2017-05-12T05:30:20.311Z,10.9
2017-05-12T05:31:21.925Z,10.9
2017-05-12T05:32:23.884Z,11
2017-05-12T05:33:25.837Z,10.9
2017-05-12T05:34:27.799Z,11
2017-05-12T05:35:29.415Z,11
2017-05-12T05:36:31.027Z,11
2017-05-12T05:37:32.639Z,11
2017-05-12T05:38:34.292Z,10.9
2017-05-12T05:39:35.905Z,11
2017-05-12T05:40:37.524Z,11
2017-05-12T05:41:39.166Z,11
2017-05-12T05:42:40.811Z,10.8
2017-05-12T05:43:42.440Z,10.8
2017-05-12T05:44:44.071Z,10.8
2017-05-12T05:45:45.696Z,10.8
2017-05-12T05:46:47.339Z,10.9
2017-05-12T05:47:48.980Z,10.9
2017-05-12T05:48:50.631Z,10.9
2017-05-12T05:49:52.261Z,10.8
2017-05-12T05:50:53.891Z,10.9
2017-05-12T05:51:55.528Z,11
2017-05-12T05:52:57.186Z,11
2017-05-12T05:53:58.826Z,11
2017-05-12T05:55:00.472Z,10.9
2017-05-12T05:56:02.128Z,10.9
2017-05-12T05:57:03.775Z,10.9
2017-05-12T05:58:05.414Z,10.9
2017-05-12T05:59:07.041Z,10.9
2017-05-12T06:00:08.675Z,10.9
2017-05-12T06:01:10.348Z,10.9
2017-05-12T06:02:11.985Z,10.9
2017-05-12T06:03:13.620Z,10.9
2017-05-12T06:04:15.251Z,10.9
2017-05-12T06:05:16.881Z,11
2017-05-12T06:06:18.854Z,11.1
2017-05-12T06:07:20.497Z,11.1
2017-05-12T06:08:22.133Z,11.1
2017-05-12T06:09:23.766Z,11
2017-05-12T06:10:25.400Z,11.1
2017-05-12T06:11:27.026Z,11.1
2017-05-12T06:12:28.666Z,10.9
2017-05-12T06:13:30.297Z,10.8
2017-05-12T06:14:31.940Z,10.9
2017-05-12T06:15:33.575Z,11
2017-05-12T06:16:35.201Z,11.1
2017-05-12T06:17:36.838Z,11.2
2017-05-12T06:18:38.477Z,11.3
2017-05-12T06:19:40.113Z,11.2
2017-05-12T06:20:41.736Z,11.2
2017-05-12T06:21:43.417Z,11.3
2017-05-12T06:22:45.051Z,11.3
2017-05-12T06:23:46.683Z,11.4
2017-05-12T06:24:48.363Z,11.5
2017-05-12T06:25:50.005Z,11.6
2017-05-12T06:26:51.643Z,11.6
2017-05-12T06:27:53.610Z,11.6
2017-05-12T06:28:55.585Z,11.6
2017-05-12T06:29:57.217Z,11.6
2017-05-12T06:30:58.850Z,11.6
2017-05-12T06:32:00.482Z,11.7
2017-05-12T06:33:02.119Z,11.7
2017-05-12T06:34:03.748Z,11.6
2017-05-12T06:35:05.716Z,11.6
2017-05-12T06:36:07.357Z,11.5
2017-05-12T06:37:08.991Z,11.5
2017-05-12T06:38:10.635Z,11.6
2017-05-12T06:39:12.276Z,11.6
2017-05-12T06:40:13.907Z,11.7
2017-05-12T06:41:15.884Z,11.7
2017-05-12T06:42:17.539Z,11.7
2017-05-12T06:43:19.171Z,11.8
2017-05-12T06:44:20.825Z,11.9
2017-05-12T06:45:22.805Z,11.8
2017-05-12T06:46:24.438Z,11.8
2017-05-12T06:47:26.421Z,11.8
2017-05-12T06:48:28.063Z,11.8
2017-05-12T06:49:29.699Z,11.6
2017-05-12T06:50:31.326Z,11.7
2017-05-12T06:51:32.954Z,11.7
2017-05-12T06:52:34.933Z,11.8
2017-05-12T06:53:36.918Z,11.7
2017-05-12T06:54:38.904Z,11.4
2017-05-12T06:55:40.547Z,11.3
2017-05-12T06:56:42.529Z,11.6
2017-05-12T06:57:44.171Z,11.8
2017-05-12T06:58:45.810Z,11.9
2017-05-12T06:59:47.448Z,12.1
2017-05-12T07:00:49.075Z,12
2017-05-12T07:01:50.718Z,11.8
2017-05-12T07:02:52.353Z,12
2017-05-12T07:03:53.995Z,12.2
2017-05-12T07:04:55.626Z,12.1
2017-05-12T07:05:57.265Z,12.3
2017-05-12T07:06:59.248Z,12.4
2017-05-12T07:08:00.882Z,12.5
2017-05-12T07:09:02.518Z,12.6
2017-05-12T07:10:04.162Z,12.7
2017-05-12T07:11:05.795Z,12.7
2017-05-12T07:12:07.427Z,12.6
2017-05-12T07:13:09.066Z,12.3
2017-05-12T07:14:11.048Z,12.4
2017-05-12T07:15:12.675Z,12.6
2017-05-12T07:16:14.309Z,12.7
2017-05-12T07:17:15.937Z,12.8
2017-05-12T07:18:17.583Z,12.7
2017-05-12T07:19:19.549Z,12.6
2017-05-12T07:20:21.182Z,12.7
2017-05-12T07:21:22.861Z,12.8
2017-05-12T07:22:24.495Z,12.8
2017-05-12T07:23:26.130Z,12.9
2017-05-12T07:24:27.773Z,12.6
2017-05-12T07:25:29.414Z,12.5
2017-05-12T07:26:31.397Z,12.7
2017-05-12T07:27:33.037Z,12.9
2017-05-12T07:28:34.665Z,13.1
2017-05-12T07:29:36.295Z,13
2017-05-12T07:30:38.271Z,13
2017-05-12T07:31:39.909Z,13.1
2017-05-12T07:32:41.541Z,12.8
2017-05-12T07:33:43.186Z,12.7
2017-05-12T07:34:44.828Z,12.7
2017-05-12T07:35:46.472Z,12.9
2017-05-12T07:36:48.101Z,13.1
2017-05-12T07:37:49.731Z,13.1
2017-05-12T07:38:51.367Z,13.1
2017-05-12T07:39:52.997Z,12.9
2017-05-12T07:40:54.636Z,12.9
2017-05-12T07:41:56.613Z,13.1
2017-05-12T07:42:58.585Z,13.1
2017-05-12T07:44:00.215Z,13.3
2017-05-12T07:45:01.852Z,13.5
2017-05-12T07:46:03.485Z,13.5
2017-05-12T07:47:05.111Z,13.7
2017-05-12T07:48:06.748Z,13.7
2017-05-12T07:49:08.403Z,13.6
2017-05-12T07:50:10.400Z,13.6
2017-05-12T07:51:12.042Z,13.5
2017-05-12T07:52:14.028Z,13.5
2017-05-12T07:53:15.672Z,13.7
2017-05-12T07:54:17.308Z,13.6
2017-05-12T07:55:18.945Z,13.4
2017-05-12T07:56:20.934Z,13.4
2017-05-12T07:57:22.571Z,13.3
2017-05-12T07:58:24.539Z,13.2
2017-05-12T07:59:26.517Z,13.3
2017-05-12T08:00:28.158Z,13.6
2017-05-12T08:01:29.792Z,13.7
2017-05-12T08:02:31.436Z,14
2017-05-12T08:03:33.417Z,14.1
2017-05-12T08:04:35.056Z,14.3
2017-05-12T08:05:36.691Z,14.4
2017-05-12T08:06:38.317Z,14.6
2017-05-12T08:07:39.954Z,14.8
2017-05-12T08:08:41.594Z,14.9
2017-05-12T08:09:43.937Z,14.9
2017-05-12T08:10:45.975Z,15
2017-05-12T08:11:47.623Z,14.8
2017-05-12T08:12:49.252Z,14.6
2017-05-12T08:13:50.885Z,14.7
2017-05-12T08:14:52.874Z,14.6
2017-05-12T08:15:54.525Z,14.5
2017-05-12T08:16:56.512Z,14.6
2017-05-12T08:17:58.147Z,14.6
2017-05-12T08:19:00.125Z,14.5
2017-05-12T08:20:01.764Z,14.6
2017-05-12T08:21:03.414Z,14.5
2017-05-12T08:22:05.048Z,14.5
2017-05-12T08:23:06.994Z,14.6
2017-05-12T08:24:08.638Z,14.7
2017-05-12T08:25:10.280Z,14.5
2017-05-12T08:26:11.910Z,14.6
2017-05-12T08:27:13.546Z,14.6
2017-05-12T08:28:15.183Z,14.6
2017-05-12T08:29:16.825Z,14.7
2017-05-12T08:30:18.476Z,14.8
2017-05-12T08:31:20.108Z,14.8
2017-05-12T08:32:21.751Z,14.8
2017-05-12T08:33:23.732Z,14.8
2017-05-12T08:34:25.714Z,14.7
2017-05-12T08:35:27.355Z,14.5
2017-05-12T08:36:29.028Z,14.5
2017-05-12T08:37:30.666Z,14.7
2017-05-12T08:38:32.299Z,14.8
2017-05-12T08:39:33.943Z,15
2017-05-12T08:40:35.581Z,15.1
2017-05-12T08:41:37.222Z,15.2
2017-05-12T08:42:39.199Z,15.1
2017-05-12T08:43:40.833Z,15.2
2017-05-12T08:44:42.478Z,15.3
2017-05-12T08:45:44.451Z,15.4
2017-05-12T08:46:46.089Z,15.4
2017-05-12T08:47:47.721Z,15.2
2017-05-12T08:48:49.352Z,15.2
2017-05-12T08:49:50.993Z,15.2
2017-05-12T08:50:52.982Z,15.3
2017-05-12T08:51:54.622Z,15.3
2017-05-12T08:52:56.260Z,15.2
2017-05-12T08:53:57.904Z,15.2
2017-05-12T08:54:59.542Z,15.3
2017-05-12T08:56:01.184Z,15.4
2017-05-12T08:57:02.823Z,15.4
2017-05-12T08:58:04.459Z,15.6
2017-05-12T08:59:06.094Z,15.6
2017-05-12T09:00:07.745Z,15.8
2017-05-12T09:01:09.409Z,15.9
2017-05-12T09:02:11.046Z,16
2017-05-12T09:03:12.685Z,16.1
2017-05-12T09:04:14.325Z,16.2
2017-05-12T09:05:16.015Z,16.3
2017-05-12T09:06:17.661Z,16.4
2017-05-12T09:07:19.308Z,16.4
2017-05-12T09:08:20.947Z,16.5
2017-05-12T09:09:22.582Z,16.6
2017-05-12T09:10:24.225Z,16.5
2017-05-12T09:11:25.855Z,16.5
2017-05-12T09:12:27.507Z,16.5
2017-05-12T09:13:29.145Z,16.6
2017-05-12T09:14:30.782Z,16.8
2017-05-12T09:15:32.432Z,17
2017-05-12T09:16:34.067Z,17.1
2017-05-12T09:17:35.697Z,17.4
2017-05-12T09:18:37.349Z,17.4
2017-05-12T09:19:38.992Z,17.6
2017-05-12T09:20:40.637Z,17.7
2017-05-12T09:21:42.617Z,17.8
2017-05-12T09:22:44.256Z,18.1
2017-05-12T09:23:45.901Z,19.2
2017-05-12T09:24:47.542Z,20.2
2017-05-12T09:25:49.180Z,20.3
2017-05-12T09:26:50.835Z,20.6
2017-05-12T09:27:52.477Z,21.2
2017-05-12T09:28:54.123Z,22
2017-05-12T09:29:55.764Z,22.7
2017-05-12T09:30:57.406Z,23.5
2017-05-12T09:31:59.040Z,24.1
2017-05-12T09:33:01.028Z,24.5
2017-05-12T09:34:02.672Z,23.9
2017-05-12T09:35:04.329Z,24.4
2017-05-12T09:36:06.330Z,25
2017-05-12T09:37:07.973Z,25.2
2017-05-12T09:38:09.613Z,25.3
2017-05-12T09:39:11.268Z,24.8
2017-05-12T09:40:12.918Z,24.3
2017-05-12T09:41:14.910Z,23.6
2017-05-12T09:42:16.566Z,22.8
2017-05-12T09:43:18.217Z,23.1
2017-05-12T09:44:19.859Z,22.6
2017-05-12T09:45:21.853Z,23.1
2017-05-12T09:46:23.499Z,23.7
2017-05-12T09:47:25.152Z,24.1
2017-05-12T09:48:26.792Z,24.5
2017-05-12T09:49:28.435Z,24.3
2017-05-12T09:50:30.087Z,24
2017-05-12T09:51:31.737Z,23.5
2017-05-12T09:52:33.376Z,23.5
2017-05-12T09:53:35.032Z,23.3
2017-05-12T09:54:36.676Z,22.4
2017-05-12T09:55:38.326Z,22.2
2017-05-12T09:56:39.967Z,22.3
2017-05-12T09:57:41.963Z,22.2
2017-05-12T09:58:43.606Z,22.1
2017-05-12T09:59:45.260Z,22.1
2017-05-12T10:00:46.901Z,22.3
2017-05-12T10:01:48.547Z,22.4
2017-05-12T10:02:50.200Z,22.5
2017-05-12T10:03:51.854Z,22.3
2017-05-12T10:04:53.499Z,22.1
2017-05-12T10:05:55.148Z,21.9
2017-05-12T10:06:56.794Z,21.5
2017-05-12T10:07:58.452Z,21.4
2017-05-12T10:09:00.097Z,21.9
2017-05-12T10:10:02.098Z,22.2
2017-05-12T10:11:03.744Z,22.4
2017-05-12T10:12:05.724Z,22.6
2017-05-12T10:13:07.368Z,22.7
2017-05-12T10:14:09.018Z,22.7
2017-05-12T10:15:10.671Z,22.6
2017-05-12T10:16:12.321Z,22.8
2017-05-12T10:17:13.962Z,23
2017-05-12T10:18:34.789Z,23.1
2017-05-12T10:19:36.412Z,23.1
2017-05-12T10:20:38.038Z,23
2017-05-12T10:21:39.672Z,22.9
2017-05-12T10:22:41.293Z,22.7
2017-05-12T10:23:43.258Z,23.1
2017-05-12T10:24:44.894Z,23.4
2017-05-12T10:25:46.567Z,23.3
2017-05-12T10:26:48.191Z,22.7
2017-05-12T10:27:49.814Z,22.4
2017-05-12T10:28:51.444Z,22.5
2017-05-12T10:29:53.421Z,22.6
2017-05-12T10:30:55.046Z,22.7
2017-05-12T10:31:56.679Z,22.4
2017-05-12T10:32:58.310Z,22.2
2017-05-12T10:33:59.940Z,22.4
2017-05-12T10:35:01.898Z,22.6
2017-05-12T10:36:03.562Z,22.8
2017-05-12T10:37:05.189Z,22.9
2017-05-12T10:38:06.817Z,22.9
2017-05-12T10:39:08.793Z,23.1
2017-05-12T10:40:10.418Z,22.9
2017-05-12T10:41:12.089Z,22.4
2017-05-12T10:42:13.711Z,22.2
2017-05-12T10:43:15.341Z,22
2017-05-12T10:44:16.979Z,22.1
2017-05-12T10:45:18.601Z,22
2017-05-12T10:46:20.228Z,22.2
2017-05-12T10:47:21.851Z,22.5
2017-05-12T10:48:23.481Z,22.6
2017-05-12T10:49:25.104Z,22.5
2017-05-12T10:50:26.726Z,22.3
2017-05-12T10:51:28.355Z,22.4
2017-05-12T10:52:29.981Z,22.2
2017-05-12T10:53:31.600Z,21.8
2017-05-12T10:54:33.236Z,21.5
2017-05-12T10:55:34.864Z,21.1
2017-05-12T10:56:36.485Z,21.3
2017-05-12T10:57:38.106Z,20.6
2017-05-12T10:58:39.727Z,20.6
2017-05-12T10:59:41.350Z,20.7
2017-05-12T11:00:43.320Z,21
2017-05-12T11:01:44.945Z,21.6
2017-05-12T11:02:46.911Z,21.6
2017-05-12T11:03:48.532Z,21.3
2017-05-12T11:04:50.165Z,21.1
2017-05-12T11:05:51.791Z,21.4
2017-05-12T11:06:53.415Z,21.9
2017-05-12T11:07:55.044Z,22
2017-05-12T11:08:56.671Z,22.1
2017-05-12T11:09:58.639Z,21.9
2017-05-12T11:11:00.276Z,21.6
2017-05-12T11:12:01.914Z,21.8
2017-05-12T11:13:03.544Z,21.6
2017-05-12T11:14:05.186Z,21.6
2017-05-12T11:15:06.813Z,21.4
2017-05-12T11:16:08.806Z,21.7
2017-05-12T11:17:10.467Z,21.7
2017-05-12T11:18:12.092Z,21.7
2017-05-12T11:19:13.723Z,21.9
2017-05-12T11:20:15.346Z,21.5
2017-05-12T11:21:16.966Z,21.5
2017-05-12T11:22:18.593Z,21.6
2017-05-12T11:23:20.223Z,21.4
2017-05-12T11:24:22.197Z,21.6
2017-05-12T11:25:23.819Z,21.7
2017-05-12T11:26:25.458Z,22
2017-05-12T11:27:27.335Z,22.1
2017-05-12T11:28:28.961Z,22.1
2017-05-12T11:29:30.598Z,22
2017-05-12T11:30:32.222Z,22.1
2017-05-12T11:31:33.848Z,22.2
2017-05-12T11:32:35.543Z,22.3
2017-05-12T11:33:37.175Z,22.1
2017-05-12T11:34:38.807Z,22.1
2017-05-12T11:35:40.436Z,22.3
2017-05-12T11:36:42.288Z,22.5
2017-05-12T11:37:44.075Z,22.3
2017-05-12T11:38:45.777Z,22.2
2017-05-12T11:39:47.410Z,22.1
2017-05-12T11:40:49.036Z,22.1
2017-05-12T11:41:50.662Z,21.9
2017-05-12T11:42:52.281Z,22
2017-05-12T11:43:53.916Z,22.4
2017-05-12T11:44:55.595Z,22.5
2017-05-12T11:45:57.264Z,22.8
2017-05-12T11:46:58.890Z,23
2017-05-12T11:48:00.513Z,23.4
2017-05-12T11:49:02.157Z,23.3
2017-05-12T11:50:03.928Z,23.5
2017-05-12T11:51:05.943Z,23.6
2017-05-12T11:52:07.596Z,23.5
2017-05-12T11:53:09.227Z,23.6
2017-05-12T11:54:10.868Z,23.4
2017-05-12T11:55:12.501Z,23.9
2017-05-12T11:56:14.126Z,24.4
2017-05-12T11:57:15.758Z,24.4
2017-05-12T11:58:17.381Z,24.5
2017-05-12T11:59:19.013Z,25.1
2017-05-12T12:00:20.633Z,25.6
2017-05-12T12:01:22.305Z,26
2017-05-12T12:02:23.934Z,26.4
2017-05-12T12:03:25.572Z,26.8
2017-05-12T12:04:27.537Z,26.6
2017-05-12T12:05:29.166Z,26.8
2017-05-12T12:06:30.856Z,27
2017-05-12T12:07:32.741Z,26.9
2017-05-12T12:08:34.573Z,26.8
2017-05-12T12:09:36.538Z,26.9
2017-05-12T12:10:38.163Z,27
2017-05-12T12:11:39.797Z,27.6
2017-05-12T12:12:41.429Z,27.7
2017-05-12T12:13:43.398Z,27.8
2017-05-12T12:14:45.367Z,28
2017-05-12T12:15:47.003Z,28.1
2017-05-12T12:16:48.636Z,28.3
2017-05-12T12:17:50.265Z,28.2
2017-05-12T12:18:51.899Z,26.9
2017-05-12T12:19:53.533Z,27.1
2017-05-12T12:20:55.203Z,27.7
2017-05-12T12:21:56.838Z,27.4
2017-05-12T12:22:58.465Z,27.5
2017-05-12T12:24:00.098Z,27.6
2017-05-12T12:25:02.066Z,27.7
2017-05-12T12:26:03.742Z,27.6
2017-05-12T12:27:05.406Z,27.6
2017-05-12T12:28:07.289Z,26.9
2017-05-12T12:29:08.925Z,27.8
2017-05-12T12:30:10.778Z,28.5
2017-05-12T12:31:12.420Z,28.4
2017-05-12T12:32:14.419Z,28.4
2017-05-12T12:33:16.196Z,28.6
2017-05-12T12:34:17.828Z,28.2
2017-05-12T12:35:19.462Z,28.5
2017-05-12T12:36:21.232Z,28.9
2017-05-12T12:37:22.860Z,28.7
2017-05-12T12:38:24.495Z,28.9
2017-05-12T12:39:26.127Z,29
2017-05-12T12:40:27.767Z,29.2
2017-05-12T12:41:29.459Z,29.4
2017-05-12T12:42:31.091Z,29.5
2017-05-12T12:43:33.725Z,28.9
2017-05-12T12:44:35.380Z,29
2017-05-12T12:45:37.013Z,28.5
2017-05-12T12:46:42.351Z,29
2017-05-12T12:47:45.374Z,29.4
2017-05-12T12:48:47.013Z,29.5
2017-05-12T12:49:48.649Z,29.8
2017-05-12T12:50:50.299Z,29.4
2017-05-12T12:51:51.939Z,28.8
2017-05-12T12:52:53.574Z,29.2
2017-05-12T12:53:55.215Z,28.3
2017-05-12T12:54:57.200Z,27.4
2017-05-12T12:55:58.833Z,27.8
2017-05-12T12:57:00.463Z,28.6
2017-05-12T12:58:02.444Z,28.6
2017-05-12T12:59:04.080Z,28.7
2017-05-12T13:00:05.719Z,28.4
2017-05-12T13:01:07.735Z,28.8
2017-05-12T13:02:09.369Z,29
2017-05-12T13:03:11.115Z,29
2017-05-12T13:04:12.749Z,29.4
2017-05-12T13:05:14.380Z,29.6
2017-05-12T13:06:16.027Z,30
2017-05-12T13:07:17.655Z,30
2017-05-12T13:08:19.291Z,30
2017-05-12T13:09:20.950Z,29.8
2017-05-12T13:10:22.592Z,29.8
2017-05-12T13:11:24.223Z,30
2017-05-12T13:12:25.857Z,30.3
2017-05-12T13:13:27.519Z,30.1
2017-05-12T13:14:29.543Z,30.2
2017-05-12T13:15:31.176Z,30.1
2017-05-12T13:16:32.819Z,30.2
2017-05-12T13:17:34.449Z,30.3
2017-05-12T13:18:36.106Z,30.7
2017-05-12T13:19:37.740Z,30.9
2017-05-12T13:20:39.379Z,30.4
2017-05-12T13:21:41.016Z,30
2017-05-12T13:22:43.340Z,29.5
2017-05-12T13:23:44.974Z,28.8
2017-05-12T13:24:46.631Z,28.9
2017-05-12T13:25:48.271Z,29.4
2017-05-12T13:26:49.908Z,29.1
2017-05-12T13:27:51.881Z,29.5
2017-05-12T13:28:53.518Z,29.3
2017-05-12T13:29:55.150Z,28.9
2017-05-12T13:30:56.786Z,29.1
2017-05-12T13:31:58.765Z,29.6
2017-05-12T13:33:00.530Z,30.1
2017-05-12T13:34:02.168Z,30.2
2017-05-12T13:35:04.146Z,30.3
2017-05-12T13:36:05.788Z,29.7
2017-05-12T13:37:07.435Z,29.9
2017-05-12T13:38:09.078Z,29.7
2017-05-12T13:39:11.057Z,29.7
2017-05-12T13:40:12.699Z,29.6
2017-05-12T13:41:14.335Z,29.9
2017-05-12T13:42:15.974Z,30.3
2017-05-12T13:43:17.613Z,30.6
2017-05-12T13:44:19.245Z,30.6
2017-05-12T13:45:20.880Z,30.5
2017-05-12T13:46:22.884Z,30.1
2017-05-12T13:47:24.520Z,30.2